sensor_id;sensor_type;location;lat;lon;timestamp;temperature;humidity
22734;DHT22;11534;51.994;5.692;2023-06-14T00:00:20;21.10;86.20
22734;DHT22;11534;51.994;5.692;2023-06-14T00:02:46;21.00;85.60
22734;DHT22;11534;51.994;5.692;2023-06-14T00:05:12;21.00;85.90
22734;DHT22;11534;51.994;5.692;2023-06-14T00:07:39;20.90;86.00
22734;DHT22;11534;51.994;5.692;2023-06-14T00:10:09;20.90;86.40
22734;DHT22;11534;51.994;5.692;2023-06-14T00:12:35;20.90;86.80
22734;DHT22;11534;51.994;5.692;2023-06-14T00:15:02;20.90;87.00
22734;DHT22;11534;51.994;5.692;2023-06-14T00:17:28;20.90;87.40
22734;DHT22;11534;51.994;5.692;2023-06-14T00:19:57;20.80;87.80
22734;DHT22;11534;51.994;5.692;2023-06-14T00:22:24;20.80;87.60
22734;DHT22;11534;51.994;5.692;2023-06-14T00:24:56;20.80;86.80
22734;DHT22;11534;51.994;5.692;2023-06-14T00:27:21;20.80;87.60
22734;DHT22;11534;51.994;5.692;2023-06-14T00:29:47;20.70;87.70
22734;DHT22;11534;51.994;5.692;2023-06-14T00:32:13;20.80;87.70
22734;DHT22;11534;51.994;5.692;2023-06-14T00:34:38;20.80;87.40
22734;DHT22;11534;51.994;5.692;2023-06-14T00:37:05;20.80;88.10
22734;DHT22;11534;51.994;5.692;2023-06-14T00:39:30;20.80;88.00
22734;DHT22;11534;51.994;5.692;2023-06-14T00:41:56;20.80;88.90
22734;DHT22;11534;51.994;5.692;2023-06-14T00:44:23;20.70;88.20
22734;DHT22;11534;51.994;5.692;2023-06-14T00:46:49;20.70;88.40
22734;DHT22;11534;51.994;5.692;2023-06-14T00:49:15;20.70;88.40
22734;DHT22;11534;51.994;5.692;2023-06-14T00:51:41;20.70;88.10
22734;DHT22;11534;51.994;5.692;2023-06-14T00:54:08;20.60;88.20
22734;DHT22;11534;51.994;5.692;2023-06-14T00:56:36;20.60;89.00
22734;DHT22;11534;51.994;5.692;2023-06-14T00:59:02;20.50;89.10
22734;DHT22;11534;51.994;5.692;2023-06-14T01:01:29;20.50;89.20
22734;DHT22;11534;51.994;5.692;2023-06-14T01:03:58;20.50;89.40
22734;DHT22;11534;51.994;5.692;2023-06-14T01:06:45;20.50;89.10
22734;DHT22;11534;51.994;5.692;2023-06-14T01:09:32;20.50;89.10
22734;DHT22;11534;51.994;5.692;2023-06-14T01:12:15;20.40;89.70
22734;DHT22;11534;51.994;5.692;2023-06-14T01:14:48;20.40;89.70
22734;DHT22;11534;51.994;5.692;2023-06-14T01:17:14;20.40;90.10
22734;DHT22;11534;51.994;5.692;2023-06-14T01:19:43;20.30;90.20
22734;DHT22;11534;51.994;5.692;2023-06-14T01:22:11;20.30;90.10
22734;DHT22;11534;51.994;5.692;2023-06-14T01:24:36;20.20;90.20
22734;DHT22;11534;51.994;5.692;2023-06-14T01:27:05;20.20;90.00
22734;DHT22;11534;51.994;5.692;2023-06-14T01:29:32;20.20;90.10
22734;DHT22;11534;51.994;5.692;2023-06-14T01:31:59;20.10;90.20
22734;DHT22;11534;51.994;5.692;2023-06-14T01:34:26;20.00;88.50
22734;DHT22;11534;51.994;5.692;2023-06-14T01:36:52;20.00;90.40
22734;DHT22;11534;51.994;5.692;2023-06-14T01:39:20;20.00;90.40
22734;DHT22;11534;51.994;5.692;2023-06-14T01:41:47;20.00;90.50
22734;DHT22;11534;51.994;5.692;2023-06-14T01:44:16;19.90;90.40
22734;DHT22;11534;51.994;5.692;2023-06-14T01:46:42;19.90;90.60
22734;DHT22;11534;51.994;5.692;2023-06-14T01:49:08;19.90;90.50
22734;DHT22;11534;51.994;5.692;2023-06-14T01:51:34;19.90;91.00
22734;DHT22;11534;51.994;5.692;2023-06-14T01:54:01;19.90;90.60
22734;DHT22;11534;51.994;5.692;2023-06-14T01:56:26;19.90;90.60
22734;DHT22;11534;51.994;5.692;2023-06-14T01:58:52;19.80;90.60
22734;DHT22;11534;51.994;5.692;2023-06-14T02:01:19;19.80;90.80
22734;DHT22;11534;51.994;5.692;2023-06-14T02:03:47;19.80;90.70
22734;DHT22;11534;51.994;5.692;2023-06-14T02:06:13;19.80;90.80
22734;DHT22;11534;51.994;5.692;2023-06-14T02:08:39;19.70;90.70
22734;DHT22;11534;51.994;5.692;2023-06-14T02:11:05;19.60;90.90
22734;DHT22;11534;51.994;5.692;2023-06-14T02:13:31;19.70;90.90
22734;DHT22;11534;51.994;5.692;2023-06-14T02:15:56;19.60;91.00
22734;DHT22;11534;51.994;5.692;2023-06-14T02:18:23;19.60;91.00
22734;DHT22;11534;51.994;5.692;2023-06-14T02:20:48;19.60;91.10
22734;DHT22;11534;51.994;5.692;2023-06-14T02:23:14;19.60;91.20
22734;DHT22;11534;51.994;5.692;2023-06-14T02:25:40;19.60;91.10
22734;DHT22;11534;51.994;5.692;2023-06-14T02:28:06;19.60;91.30
22734;DHT22;11534;51.994;5.692;2023-06-14T02:30:31;19.50;91.30
22734;DHT22;11534;51.994;5.692;2023-06-14T02:32:57;19.50;91.40
22734;DHT22;11534;51.994;5.692;2023-06-14T02:35:24;19.40;91.70
22734;DHT22;11534;51.994;5.692;2023-06-14T02:37:52;19.40;91.50
22734;DHT22;11534;51.994;5.692;2023-06-14T02:40:18;19.40;91.40
22734;DHT22;11534;51.994;5.692;2023-06-14T02:42:44;19.40;91.50
22734;DHT22;11534;51.994;5.692;2023-06-14T02:45:10;19.40;91.40
22734;DHT22;11534;51.994;5.692;2023-06-14T02:47:35;19.40;91.70
22734;DHT22;11534;51.994;5.692;2023-06-14T02:50:01;19.40;91.60
22734;DHT22;11534;51.994;5.692;2023-06-14T02:52:28;19.30;91.50
22734;DHT22;11534;51.994;5.692;2023-06-14T02:54:54;19.30;91.70
22734;DHT22;11534;51.994;5.692;2023-06-14T02:57:21;19.20;91.80
22734;DHT22;11534;51.994;5.692;2023-06-14T02:59:47;19.20;91.90
22734;DHT22;11534;51.994;5.692;2023-06-14T03:02:12;19.20;92.00
22734;DHT22;11534;51.994;5.692;2023-06-14T03:04:38;19.20;92.00
22734;DHT22;11534;51.994;5.692;2023-06-14T03:07:04;19.20;92.10
22734;DHT22;11534;51.994;5.692;2023-06-14T03:09:35;19.20;92.40
22734;DHT22;11534;51.994;5.692;2023-06-14T03:12:02;19.10;92.20
22734;DHT22;11534;51.994;5.692;2023-06-14T03:14:28;19.10;92.20
22734;DHT22;11534;51.994;5.692;2023-06-14T03:16:56;19.10;92.20
22734;DHT22;11534;51.994;5.692;2023-06-14T03:19:22;19.00;92.30
22734;DHT22;11534;51.994;5.692;2023-06-14T03:21:48;18.90;92.20
22734;DHT22;11534;51.994;5.692;2023-06-14T03:24:15;18.90;92.30
22734;DHT22;11534;51.994;5.692;2023-06-14T03:26:44;18.90;92.40
22734;DHT22;11534;51.994;5.692;2023-06-14T03:29:09;18.90;92.50
22734;DHT22;11534;51.994;5.692;2023-06-14T03:31:36;18.90;92.70
22734;DHT22;11534;51.994;5.692;2023-06-14T03:34:02;18.90;92.80
22734;DHT22;11534;51.994;5.692;2023-06-14T03:36:27;18.90;92.80
22734;DHT22;11534;51.994;5.692;2023-06-14T03:38:53;18.90;92.70
22734;DHT22;11534;51.994;5.692;2023-06-14T03:41:20;18.80;92.60
22734;DHT22;11534;51.994;5.692;2023-06-14T03:43:46;18.80;92.70
22734;DHT22;11534;51.994;5.692;2023-06-14T03:46:12;18.60;92.90
22734;DHT22;11534;51.994;5.692;2023-06-14T03:48:37;18.50;92.80
22734;DHT22;11534;51.994;5.692;2023-06-14T03:51:04;18.50;93.50
22734;DHT22;11534;51.994;5.692;2023-06-14T03:53:30;18.40;93.30
22734;DHT22;11534;51.994;5.692;2023-06-14T03:55:56;18.50;93.60
22734;DHT22;11534;51.994;5.692;2023-06-14T03:58:22;18.50;93.40
22734;DHT22;11534;51.994;5.692;2023-06-14T04:00:48;18.40;93.70
22734;DHT22;11534;51.994;5.692;2023-06-14T04:03:13;18.40;93.90
22734;DHT22;11534;51.994;5.692;2023-06-14T04:05:41;18.30;93.80
22734;DHT22;11534;51.994;5.692;2023-06-14T04:08:08;18.40;94.00
22734;DHT22;11534;51.994;5.692;2023-06-14T04:10:40;18.40;94.20
22734;DHT22;11534;51.994;5.692;2023-06-14T04:13:06;18.30;94.00
22734;DHT22;11534;51.994;5.692;2023-06-14T04:15:32;18.30;94.10
22734;DHT22;11534;51.994;5.692;2023-06-14T04:17:58;18.30;94.30
22734;DHT22;11534;51.994;5.692;2023-06-14T04:20:24;18.40;94.40
22734;DHT22;11534;51.994;5.692;2023-06-14T04:22:51;18.40;94.60
22734;DHT22;11534;51.994;5.692;2023-06-14T04:25:18;18.50;94.50
22734;DHT22;11534;51.994;5.692;2023-06-14T04:27:43;18.50;94.60
22734;DHT22;11534;51.994;5.692;2023-06-14T04:30:09;18.50;94.40
22734;DHT22;11534;51.994;5.692;2023-06-14T04:32:35;18.50;94.30
22734;DHT22;11534;51.994;5.692;2023-06-14T04:35:07;18.60;94.60
22734;DHT22;11534;51.994;5.692;2023-06-14T04:37:33;18.50;94.70
22734;DHT22;11534;51.994;5.692;2023-06-14T04:39:59;18.60;94.70
22734;DHT22;11534;51.994;5.692;2023-06-14T04:42:26;18.60;94.90
22734;DHT22;11534;51.994;5.692;2023-06-14T04:44:56;18.50;95.10
22734;DHT22;11534;51.994;5.692;2023-06-14T04:47:23;18.50;94.90
22734;DHT22;11534;51.994;5.692;2023-06-14T04:49:55;18.50;95.20
22734;DHT22;11534;51.994;5.692;2023-06-14T04:52:21;18.50;95.10
22734;DHT22;11534;51.994;5.692;2023-06-14T04:54:47;18.50;95.30
22734;DHT22;11534;51.994;5.692;2023-06-14T04:57:12;18.50;95.20
22734;DHT22;11534;51.994;5.692;2023-06-14T04:59:43;18.40;95.80
22734;DHT22;11534;51.994;5.692;2023-06-14T05:02:10;18.40;95.60
22734;DHT22;11534;51.994;5.692;2023-06-14T05:04:37;18.40;95.60
22734;DHT22;11534;51.994;5.692;2023-06-14T05:07:07;18.40;95.70
22734;DHT22;11534;51.994;5.692;2023-06-14T05:09:35;18.40;95.80
22734;DHT22;11534;51.994;5.692;2023-06-14T05:12:01;18.40;95.80
22734;DHT22;11534;51.994;5.692;2023-06-14T05:14:27;18.40;95.90
22734;DHT22;11534;51.994;5.692;2023-06-14T05:16:52;18.40;96.20
22734;DHT22;11534;51.994;5.692;2023-06-14T05:19:19;18.40;96.40
22734;DHT22;11534;51.994;5.692;2023-06-14T05:21:46;18.40;96.20
22734;DHT22;11534;51.994;5.692;2023-06-14T05:26:48;18.40;96.00
22734;DHT22;11534;51.994;5.692;2023-06-14T05:29:15;18.40;96.80
22734;DHT22;11534;51.994;5.692;2023-06-14T05:34:45;18.40;97.10
22734;DHT22;11534;51.994;5.692;2023-06-14T05:37:11;18.50;96.30
22734;DHT22;11534;51.994;5.692;2023-06-14T05:39:38;18.40;95.70
22734;DHT22;11534;51.994;5.692;2023-06-14T05:42:04;18.40;96.90
22734;DHT22;11534;51.994;5.692;2023-06-14T05:44:31;18.40;96.30
22734;DHT22;11534;51.994;5.692;2023-06-14T05:46:57;18.40;96.40
22734;DHT22;11534;51.994;5.692;2023-06-14T05:49:22;18.50;96.30
22734;DHT22;11534;51.994;5.692;2023-06-14T05:51:48;18.50;96.50
22734;DHT22;11534;51.994;5.692;2023-06-14T05:54:14;18.50;96.30
22734;DHT22;11534;51.994;5.692;2023-06-14T05:56:39;18.50;95.90
22734;DHT22;11534;51.994;5.692;2023-06-14T05:59:05;18.60;96.60
22734;DHT22;11534;51.994;5.692;2023-06-14T06:01:30;18.60;96.60
22734;DHT22;11534;51.994;5.692;2023-06-14T06:03:58;18.60;96.60
22734;DHT22;11534;51.994;5.692;2023-06-14T06:06:23;18.60;97.00
22734;DHT22;11534;51.994;5.692;2023-06-14T06:08:49;18.70;97.20
22734;DHT22;11534;51.994;5.692;2023-06-14T06:11:15;18.80;96.30
22734;DHT22;11534;51.994;5.692;2023-06-14T06:13:40;18.90;96.80
22734;DHT22;11534;51.994;5.692;2023-06-14T06:16:06;18.80;95.90
22734;DHT22;11534;51.994;5.692;2023-06-14T06:18:32;18.90;96.40
22734;DHT22;11534;51.994;5.692;2023-06-14T06:20:58;18.90;96.50
22734;DHT22;11534;51.994;5.692;2023-06-14T06:23:23;19.00;96.40
22734;DHT22;11534;51.994;5.692;2023-06-14T06:25:49;19.10;96.50
22734;DHT22;11534;51.994;5.692;2023-06-14T06:28:15;19.10;95.60
22734;DHT22;11534;51.994;5.692;2023-06-14T06:30:40;19.20;96.10
22734;DHT22;11534;51.994;5.692;2023-06-14T06:33:06;19.30;95.70
22734;DHT22;11534;51.994;5.692;2023-06-14T06:35:32;19.40;95.80
22734;DHT22;11534;51.994;5.692;2023-06-14T06:37:58;19.40;94.90
22734;DHT22;11534;51.994;5.692;2023-06-14T06:40:24;19.50;94.80
22734;DHT22;11534;51.994;5.692;2023-06-14T06:42:50;19.60;95.50
22734;DHT22;11534;51.994;5.692;2023-06-14T06:45:15;19.70;95.00
22734;DHT22;11534;51.994;5.692;2023-06-14T06:47:41;19.70;94.70
22734;DHT22;11534;51.994;5.692;2023-06-14T07:19:09;20.50;94.00
22734;DHT22;11534;51.994;5.692;2023-06-14T07:21:35;20.60;93.80
22734;DHT22;11534;51.994;5.692;2023-06-14T07:24:05;20.70;94.10
22734;DHT22;11534;51.994;5.692;2023-06-14T07:26:32;20.90;93.30
22734;DHT22;11534;51.994;5.692;2023-06-14T07:28:57;21.00;93.30
22734;DHT22;11534;51.994;5.692;2023-06-14T07:46:55;21.90;91.80
22734;DHT22;11534;51.994;5.692;2023-06-14T07:49:23;22.00;91.40
22734;DHT22;11534;51.994;5.692;2023-06-14T07:51:49;22.20;91.00
22734;DHT22;11534;51.994;5.692;2023-06-14T07:54:17;22.30;90.00
22734;DHT22;11534;51.994;5.692;2023-06-14T07:56:43;22.40;90.30
22734;DHT22;11534;51.994;5.692;2023-06-14T07:59:09;22.40;89.90
22734;DHT22;11534;51.994;5.692;2023-06-14T08:01:34;22.50;89.20
22734;DHT22;11534;51.994;5.692;2023-06-14T08:04:01;22.70;90.00
22734;DHT22;11534;51.994;5.692;2023-06-14T08:06:27;22.70;88.80
22734;DHT22;11534;51.994;5.692;2023-06-14T08:08:52;22.80;89.10
22734;DHT22;11534;51.994;5.692;2023-06-14T08:11:18;22.90;89.40
22734;DHT22;11534;51.994;5.692;2023-06-14T08:13:44;22.90;89.50
22734;DHT22;11534;51.994;5.692;2023-06-14T08:16:09;23.10;88.70
22734;DHT22;11534;51.994;5.692;2023-06-14T08:18:36;23.20;88.70
22734;DHT22;11534;51.994;5.692;2023-06-14T08:21:01;23.30;88.60
22734;DHT22;11534;51.994;5.692;2023-06-14T08:23:28;23.20;88.00
22734;DHT22;11534;51.994;5.692;2023-06-14T08:25:54;23.30;89.10
22734;DHT22;11534;51.994;5.692;2023-06-14T08:28:20;23.30;88.10
22734;DHT22;11534;51.994;5.692;2023-06-14T08:30:46;23.30;87.70
22734;DHT22;11534;51.994;5.692;2023-06-14T08:33:11;23.20;85.70
22734;DHT22;11534;51.994;5.692;2023-06-14T08:35:37;23.20;83.80
22734;DHT22;11534;51.994;5.692;2023-06-14T08:38:04;23.30;85.60
22734;DHT22;11534;51.994;5.692;2023-06-14T08:40:30;23.30;85.70
22734;DHT22;11534;51.994;5.692;2023-06-14T08:42:56;23.30;85.00
22734;DHT22;11534;51.994;5.692;2023-06-14T08:45:23;23.30;86.40
22734;DHT22;11534;51.994;5.692;2023-06-14T08:47:53;23.40;86.60
22734;DHT22;11534;51.994;5.692;2023-06-14T08:50:27;23.30;84.70
22734;DHT22;11534;51.994;5.692;2023-06-14T08:52:57;23.20;84.90
22734;DHT22;11534;51.994;5.692;2023-06-14T08:55:27;23.10;83.40
22734;DHT22;11534;51.994;5.692;2023-06-14T08:57:57;23.10;84.40
22734;DHT22;11534;51.994;5.692;2023-06-14T09:00:24;23.00;82.80
22734;DHT22;11534;51.994;5.692;2023-06-14T09:02:51;23.00;84.50
22734;DHT22;11534;51.994;5.692;2023-06-14T09:05:22;22.90;83.10
22734;DHT22;11534;51.994;5.692;2023-06-14T09:07:48;22.90;83.80
22734;DHT22;11534;51.994;5.692;2023-06-14T09:10:16;23.00;83.10
22734;DHT22;11534;51.994;5.692;2023-06-14T09:12:42;23.10;83.70
22734;DHT22;11534;51.994;5.692;2023-06-14T09:15:09;23.10;81.30
22734;DHT22;11534;51.994;5.692;2023-06-14T09:17:36;23.00;81.10
22734;DHT22;11534;51.994;5.692;2023-06-14T09:20:03;23.10;84.80
22734;DHT22;11534;51.994;5.692;2023-06-14T09:22:35;23.20;81.20
22734;DHT22;11534;51.994;5.692;2023-06-14T09:25:00;23.20;81.50
22734;DHT22;11534;51.994;5.692;2023-06-14T09:27:27;23.20;80.80
22734;DHT22;11534;51.994;5.692;2023-06-14T09:29:53;23.30;81.90
22734;DHT22;11534;51.994;5.692;2023-06-14T09:32:19;23.40;83.00
22734;DHT22;11534;51.994;5.692;2023-06-14T09:34:45;23.50;83.50
22734;DHT22;11534;51.994;5.692;2023-06-14T09:37:11;23.60;81.60
22734;DHT22;11534;51.994;5.692;2023-06-14T09:39:50;23.70;80.60
22734;DHT22;11534;51.994;5.692;2023-06-14T09:42:17;23.80;81.30
22734;DHT22;11534;51.994;5.692;2023-06-14T09:44:47;23.90;81.90
22734;DHT22;11534;51.994;5.692;2023-06-14T09:47:13;24.00;80.90
22734;DHT22;11534;51.994;5.692;2023-06-14T09:49:39;24.10;80.60
22734;DHT22;11534;51.994;5.692;2023-06-14T09:52:06;24.20;80.10
22734;DHT22;11534;51.994;5.692;2023-06-14T09:54:40;24.30;79.00
22734;DHT22;11534;51.994;5.692;2023-06-14T09:57:09;24.40;79.40
22734;DHT22;11534;51.994;5.692;2023-06-14T09:59:43;24.40;78.50
22734;DHT22;11534;51.994;5.692;2023-06-14T10:05:11;24.80;80.60
22734;DHT22;11534;51.994;5.692;2023-06-14T10:07:38;24.80;79.60
22734;DHT22;11534;51.994;5.692;2023-06-14T10:10:06;24.90;78.60
22734;DHT22;11534;51.994;5.692;2023-06-14T10:12:32;25.10;78.80
22734;DHT22;11534;51.994;5.692;2023-06-14T10:14:58;25.20;79.50
22734;DHT22;11534;51.994;5.692;2023-06-14T10:17:35;25.30;76.00
22734;DHT22;11534;51.994;5.692;2023-06-14T10:22:48;25.60;75.80
22734;DHT22;11534;51.994;5.692;2023-06-14T10:25:31;25.80;77.70
22734;DHT22;11534;51.994;5.692;2023-06-14T10:28:14;25.90;76.80
22734;DHT22;11534;51.994;5.692;2023-06-14T10:31:06;26.20;79.80
22734;DHT22;11534;51.994;5.692;2023-06-14T10:33:34;26.50;77.80
22734;DHT22;11534;51.994;5.692;2023-06-14T10:43:44;26.80;77.40
22734;DHT22;11534;51.994;5.692;2023-06-14T10:46:17;26.80;77.50
22734;DHT22;11534;51.994;5.692;2023-06-14T10:48:44;27.10;76.60
22734;DHT22;11534;51.994;5.692;2023-06-14T10:51:21;27.40;78.10
22734;DHT22;11534;51.994;5.692;2023-06-14T10:53:50;27.40;74.20
22734;DHT22;11534;51.994;5.692;2023-06-14T10:56:29;27.20;77.00
22734;DHT22;11534;51.994;5.692;2023-06-14T10:58:57;27.00;74.70
22734;DHT22;11534;51.994;5.692;2023-06-14T11:22:25;28.20;74.50
22734;DHT22;11534;51.994;5.692;2023-06-14T11:24:51;28.10;72.00
22734;DHT22;11534;51.994;5.692;2023-06-14T11:27:16;28.10;73.10
22734;DHT22;11534;51.994;5.692;2023-06-14T11:29:48;27.90;71.40
22734;DHT22;11534;51.994;5.692;2023-06-14T11:32:15;27.90;71.30
22734;DHT22;11534;51.994;5.692;2023-06-14T11:34:41;28.00;72.40
22734;DHT22;11534;51.994;5.692;2023-06-14T11:37:08;28.20;71.50
22734;DHT22;11534;51.994;5.692;2023-06-14T11:39:33;28.40;71.00
22734;DHT22;11534;51.994;5.692;2023-06-14T11:41:59;28.50;72.10
22734;DHT22;11534;51.994;5.692;2023-06-14T11:44:26;28.80;74.90
22734;DHT22;11534;51.994;5.692;2023-06-14T11:46:52;28.90;73.30
22734;DHT22;11534;51.994;5.692;2023-06-14T11:49:17;28.40;69.70
22734;DHT22;11534;51.994;5.692;2023-06-14T11:51:43;28.50;74.30
22734;DHT22;11534;51.994;5.692;2023-06-14T11:54:09;28.80;74.50
22734;DHT22;11534;51.994;5.692;2023-06-14T11:56:36;28.80;74.70
22734;DHT22;11534;51.994;5.692;2023-06-14T11:59:03;29.10;74.90
22734;DHT22;11534;51.994;5.692;2023-06-14T12:01:30;28.90;71.60
22734;DHT22;11534;51.994;5.692;2023-06-14T12:03:57;28.90;73.80
22734;DHT22;11534;51.994;5.692;2023-06-14T12:06:26;28.90;75.70
22734;DHT22;11534;51.994;5.692;2023-06-14T12:08:58;29.00;80.20
22734;DHT22;11534;51.994;5.692;2023-06-14T12:11:31;28.90;76.80
22734;DHT22;11534;51.994;5.692;2023-06-14T12:13:57;29.00;75.30
22734;DHT22;11534;51.994;5.692;2023-06-14T12:16:33;28.70;71.90
22734;DHT22;11534;51.994;5.692;2023-06-14T12:21:38;28.90;78.20
22734;DHT22;11534;51.994;5.692;2023-06-14T12:24:08;29.10;71.70
22734;DHT22;11534;51.994;5.692;2023-06-14T12:26:37;29.30;75.30
22734;DHT22;11534;51.994;5.692;2023-06-14T12:29:05;29.70;76.20
22734;DHT22;11534;51.994;5.692;2023-06-14T12:31:31;29.80;71.60
22734;DHT22;11534;51.994;5.692;2023-06-14T12:33:57;29.60;73.90
22734;DHT22;11534;51.994;5.692;2023-06-14T12:36:22;29.60;72.80
22734;DHT22;11534;51.994;5.692;2023-06-14T12:38:48;29.80;75.20
22734;DHT22;11534;51.994;5.692;2023-06-14T12:41:15;29.80;70.70
22734;DHT22;11534;51.994;5.692;2023-06-14T12:43:41;30.00;71.10
22734;DHT22;11534;51.994;5.692;2023-06-14T12:46:10;30.10;71.30
22734;DHT22;11534;51.994;5.692;2023-06-14T12:48:35;30.30;72.30
22734;DHT22;11534;51.994;5.692;2023-06-14T12:51:01;30.10;71.40
22734;DHT22;11534;51.994;5.692;2023-06-14T12:53:27;30.10;71.20
22734;DHT22;11534;51.994;5.692;2023-06-14T12:55:52;30.40;70.20
22734;DHT22;11534;51.994;5.692;2023-06-14T12:58:18;30.30;69.70
22734;DHT22;11534;51.994;5.692;2023-06-14T13:00:45;29.90;67.90
22734;DHT22;11534;51.994;5.692;2023-06-14T13:03:11;29.80;70.00
22734;DHT22;11534;51.994;5.692;2023-06-14T13:05:37;29.90;69.30
22734;DHT22;11534;51.994;5.692;2023-06-14T13:08:06;29.90;68.90
22734;DHT22;11534;51.994;5.692;2023-06-14T13:10:34;29.80;67.30
22734;DHT22;11534;51.994;5.692;2023-06-14T13:12:59;29.70;68.80
22734;DHT22;11534;51.994;5.692;2023-06-14T13:15:26;29.80;70.00
22734;DHT22;11534;51.994;5.692;2023-06-14T13:17:53;29.60;69.80
22734;DHT22;11534;51.994;5.692;2023-06-14T13:20:18;29.80;72.10
22734;DHT22;11534;51.994;5.692;2023-06-14T13:22:44;30.00;71.30
22734;DHT22;11534;51.994;5.692;2023-06-14T13:25:10;30.00;69.40
22734;DHT22;11534;51.994;5.692;2023-06-14T13:27:36;30.20;73.00
22734;DHT22;11534;51.994;5.692;2023-06-14T13:30:02;30.60;69.40
22734;DHT22;11534;51.994;5.692;2023-06-14T13:32:28;30.40;69.60
22734;DHT22;11534;51.994;5.692;2023-06-14T13:34:55;30.30;68.70
22734;DHT22;11534;51.994;5.692;2023-06-14T13:37:20;30.30;70.80
22734;DHT22;11534;51.994;5.692;2023-06-14T13:39:46;30.50;71.00
22734;DHT22;11534;51.994;5.692;2023-06-14T13:42:11;30.40;70.00
22734;DHT22;11534;51.994;5.692;2023-06-14T13:44:38;30.50;69.70
22734;DHT22;11534;51.994;5.692;2023-06-14T13:47:05;30.40;68.20
22734;DHT22;11534;51.994;5.692;2023-06-14T13:49:31;30.40;68.80
22734;DHT22;11534;51.994;5.692;2023-06-14T13:51:56;30.20;69.60
22734;DHT22;11534;51.994;5.692;2023-06-14T13:54:24;30.40;68.20
22734;DHT22;11534;51.994;5.692;2023-06-14T13:56:50;30.40;67.40
22734;DHT22;11534;51.994;5.692;2023-06-14T13:59:16;30.40;67.10
22734;DHT22;11534;51.994;5.692;2023-06-14T14:01:41;30.50;67.70
22734;DHT22;11534;51.994;5.692;2023-06-14T14:04:07;30.30;66.50
22734;DHT22;11534;51.994;5.692;2023-06-14T14:06:33;30.00;68.70
22734;DHT22;11534;51.994;5.692;2023-06-14T14:08:58;30.10;68.30
22734;DHT22;11534;51.994;5.692;2023-06-14T14:11:24;30.10;67.70
22734;DHT22;11534;51.994;5.692;2023-06-14T14:13:50;30.20;68.50
22734;DHT22;11534;51.994;5.692;2023-06-14T14:16:16;30.40;69.00
22734;DHT22;11534;51.994;5.692;2023-06-14T14:18:41;30.10;67.00
22734;DHT22;11534;51.994;5.692;2023-06-14T14:21:07;30.30;70.00
22734;DHT22;11534;51.994;5.692;2023-06-14T14:23:33;30.40;69.80
22734;DHT22;11534;51.994;5.692;2023-06-14T14:25:58;30.40;67.10
22734;DHT22;11534;51.994;5.692;2023-06-14T14:28:28;30.70;68.20
22734;DHT22;11534;51.994;5.692;2023-06-14T14:30:55;30.60;68.70
22734;DHT22;11534;51.994;5.692;2023-06-14T14:33:20;30.60;68.90
22734;DHT22;11534;51.994;5.692;2023-06-14T14:35:46;30.50;67.50
22734;DHT22;11534;51.994;5.692;2023-06-14T14:38:15;30.40;67.80
22734;DHT22;11534;51.994;5.692;2023-06-14T14:40:42;30.40;68.20
22734;DHT22;11534;51.994;5.692;2023-06-14T14:43:08;30.60;67.20
22734;DHT22;11534;51.994;5.692;2023-06-14T14:45:33;30.50;68.60
22734;DHT22;11534;51.994;5.692;2023-06-14T14:48:01;30.60;68.70
22734;DHT22;11534;51.994;5.692;2023-06-14T14:50:27;30.30;66.30
22734;DHT22;11534;51.994;5.692;2023-06-14T14:52:53;30.10;66.00
22734;DHT22;11534;51.994;5.692;2023-06-14T14:55:18;30.10;67.10
22734;DHT22;11534;51.994;5.692;2023-06-14T14:57:45;30.40;68.20
22734;DHT22;11534;51.994;5.692;2023-06-14T15:00:12;30.40;68.20
22734;DHT22;11534;51.994;5.692;2023-06-14T15:02:38;30.30;68.90
22734;DHT22;11534;51.994;5.692;2023-06-14T15:05:03;30.20;67.90
22734;DHT22;11534;51.994;5.692;2023-06-14T15:07:30;30.10;68.60
22734;DHT22;11534;51.994;5.692;2023-06-14T15:09:57;30.00;67.00
22734;DHT22;11534;51.994;5.692;2023-06-14T15:12:23;30.00;67.50
22734;DHT22;11534;51.994;5.692;2023-06-14T15:14:53;30.00;66.70
22734;DHT22;11534;51.994;5.692;2023-06-14T15:17:20;30.10;66.50
22734;DHT22;11534;51.994;5.692;2023-06-14T15:19:47;30.00;66.80
22734;DHT22;11534;51.994;5.692;2023-06-14T15:22:13;29.70;65.70
22734;DHT22;11534;51.994;5.692;2023-06-14T15:24:41;29.40;66.40
22734;DHT22;11534;51.994;5.692;2023-06-14T15:27:08;29.50;68.20
22734;DHT22;11534;51.994;5.692;2023-06-14T15:29:34;29.50;68.20
22734;DHT22;11534;51.994;5.692;2023-06-14T15:32:03;29.10;67.10
22734;DHT22;11534;51.994;5.692;2023-06-14T15:34:30;29.10;68.40
22734;DHT22;11534;51.994;5.692;2023-06-14T15:36:56;29.20;69.10
22734;DHT22;11534;51.994;5.692;2023-06-14T15:39:21;29.20;68.40
22734;DHT22;11534;51.994;5.692;2023-06-14T15:41:48;28.90;67.70
22734;DHT22;11534;51.994;5.692;2023-06-14T15:44:14;28.80;69.60
22734;DHT22;11534;51.994;5.692;2023-06-14T15:46:39;28.60;66.80
22734;DHT22;11534;51.994;5.692;2023-06-14T15:49:09;28.50;68.50
22734;DHT22;11534;51.994;5.692;2023-06-14T15:51:36;28.50;67.80
22734;DHT22;11534;51.994;5.692;2023-06-14T15:54:02;28.40;67.70
22734;DHT22;11534;51.994;5.692;2023-06-14T15:56:28;28.40;67.60
22734;DHT22;11534;51.994;5.692;2023-06-14T15:58:55;28.40;69.00
22734;DHT22;11534;51.994;5.692;2023-06-14T16:01:22;28.50;68.80
22734;DHT22;11534;51.994;5.692;2023-06-14T16:03:48;28.40;67.70
22734;DHT22;11534;51.994;5.692;2023-06-14T16:06:13;28.40;69.50
22734;DHT22;11534;51.994;5.692;2023-06-14T16:08:39;28.10;69.90
22734;DHT22;11534;51.994;5.692;2023-06-14T16:11:05;28.20;70.80
22734;DHT22;11534;51.994;5.692;2023-06-14T16:13:30;28.30;72.10
22734;DHT22;11534;51.994;5.692;2023-06-14T16:15:58;28.40;71.60
22734;DHT22;11534;51.994;5.692;2023-06-14T16:18:23;28.50;72.30
22734;DHT22;11534;51.994;5.692;2023-06-14T16:20:49;28.20;70.70
22734;DHT22;11534;51.994;5.692;2023-06-14T16:23:15;28.00;70.80
22734;DHT22;11534;51.994;5.692;2023-06-14T16:25:41;28.10;71.10
22734;DHT22;11534;51.994;5.692;2023-06-14T16:28:07;28.00;71.40
22734;DHT22;11534;51.994;5.692;2023-06-14T16:30:32;28.00;70.70
22734;DHT22;11534;51.994;5.692;2023-06-14T16:32:58;28.10;70.40
22734;DHT22;11534;51.994;5.692;2023-06-14T16:35:24;27.90;69.70
22734;DHT22;11534;51.994;5.692;2023-06-14T16:37:49;27.90;71.10
22734;DHT22;11534;51.994;5.692;2023-06-14T16:40:15;27.90;71.30
22734;DHT22;11534;51.994;5.692;2023-06-14T16:42:41;27.90;71.40
22734;DHT22;11534;51.994;5.692;2023-06-14T16:45:07;28.10;72.60
22734;DHT22;11534;51.994;5.692;2023-06-14T16:47:33;27.80;71.20
22734;DHT22;11534;51.994;5.692;2023-06-14T16:49:58;27.60;71.20
22734;DHT22;11534;51.994;5.692;2023-06-14T16:52:24;27.60;71.20
22734;DHT22;11534;51.994;5.692;2023-06-14T16:54:50;27.50;72.70